createdAt,value
2023-02-08T00:01:16.238Z,66.82
2023-02-08T00:03:44.507Z,67.14
2023-02-08T00:06:13.087Z,67.21
2023-02-08T00:08:41.644Z,67.10
2023-02-08T00:11:11.828Z,67.47
2023-02-08T00:13:42.343Z,67.07
2023-02-08T00:16:11.050Z,67.17
2023-02-08T00:18:38.749Z,67.01
2023-02-08T00:21:17.439Z,66.75
2023-02-08T00:23:45.501Z,66.65
2023-02-08T00:26:13.852Z,66.63
2023-02-08T00:28:41.776Z,66.67
2023-02-08T00:31:09.651Z,66.43
2023-02-08T00:33:37.515Z,66.55
2023-02-08T00:36:08.841Z,65.55
2023-02-08T00:38:36.895Z,66.12
2023-02-08T00:41:05.229Z,65.65
2023-02-08T00:43:33.186Z,66.25
2023-02-08T00:46:01.591Z,66.21
2023-02-08T00:48:29.826Z,66.47
2023-02-08T00:51:00.273Z,66.22
2023-02-08T00:53:28.179Z,66.17
2023-02-08T00:55:57.086Z,66.27
2023-02-08T00:58:24.852Z,66.27
2023-02-08T01:00:54.947Z,66.64
2023-02-08T01:03:24.177Z,66.58
2023-02-08T01:05:52.377Z,66.73
2023-02-08T01:08:23.556Z,66.50
2023-02-08T01:10:51.390Z,66.23
2023-02-08T01:13:19.115Z,66.40
2023-02-08T01:15:46.968Z,66.41
2023-02-08T01:18:14.705Z,65.68
2023-02-08T01:20:42.454Z,66.03
2023-02-08T01:23:10.162Z,66.21
2023-02-08T01:25:37.890Z,66.34
2023-02-08T01:28:06.094Z,66.46
2023-02-08T01:30:33.847Z,66.59
2023-02-08T01:33:01.595Z,66.57
2023-02-08T01:35:29.322Z,66.33
2023-02-08T01:37:57.060Z,66.13
2023-02-08T01:40:24.713Z,66.40
2023-02-08T01:42:52.384Z,66.43
2023-02-08T01:45:26.435Z,66.27
2023-02-08T01:48:14.788Z,66.47
2023-02-08T01:50:51.459Z,66.35
2023-02-08T01:53:19.650Z,66.26
2023-02-08T01:55:53.926Z,66.11
2023-02-08T01:58:23.402Z,66.08
2023-02-08T02:00:51.248Z,66.03
2023-02-08T02:03:21.890Z,66.05
2023-02-08T02:05:58.773Z,66.19
2023-02-08T02:08:26.831Z,66.00
2023-02-08T02:10:54.713Z,66.34
2023-02-08T02:13:24.740Z,66.34
2023-02-08T02:15:52.954Z,66.47
2023-02-08T02:18:30.706Z,66.72
2023-02-08T02:21:23.155Z,66.86
2023-02-08T02:24:31.264Z,66.70
2023-02-08T02:27:26.849Z,66.73
2023-02-08T02:30:31.763Z,67.03
2023-02-08T02:33:11.355Z,66.99
2023-02-08T02:35:54.161Z,67.11
2023-02-08T02:38:55.751Z,67.03
2023-02-08T02:41:50.918Z,67.46
2023-02-08T02:44:38.502Z,67.40
2023-02-08T02:47:32.256Z,67.49
2023-02-08T02:50:26.302Z,67.95
2023-02-08T02:53:20.851Z,67.83
2023-02-08T02:55:57.414Z,67.81
2023-02-08T02:58:26.781Z,67.61
2023-02-08T03:00:59.244Z,67.70
2023-02-08T03:03:31.687Z,67.84
2023-02-08T03:06:06.076Z,68.00
2023-02-08T03:09:13.358Z,68.08
2023-02-08T03:11:46.138Z,68.14
2023-02-08T03:14:19.962Z,68.19
2023-02-08T03:17:02.100Z,68.17
2023-02-08T03:20:13.216Z,67.81
2023-02-08T03:23:02.641Z,67.92
2023-02-08T03:26:01.594Z,68.11
2023-02-08T03:28:59.667Z,67.25
2023-02-08T03:31:47.109Z,67.26
2023-02-08T03:34:28.245Z,67.62
2023-02-08T03:37:09.444Z,67.64
2023-02-08T03:39:40.073Z,67.49
2023-02-08T03:42:16.107Z,67.67
2023-02-08T03:44:53.143Z,67.63
2023-02-08T03:47:28.242Z,67.41
2023-02-08T03:50:00.746Z,67.44
2023-02-08T03:52:31.476Z,67.73
2023-02-08T03:55:07.837Z,67.62
2023-02-08T03:58:14.083Z,67.57
2023-02-08T04:00:46.215Z,67.70
2023-02-08T04:03:21.411Z,67.49
2023-02-08T04:05:50.497Z,67.64
2023-02-08T04:08:18.447Z,67.65
2023-02-08T04:10:48.235Z,67.75
2023-02-08T04:13:16.006Z,67.22
2023-02-08T04:15:45.200Z,67.28
2023-02-08T04:18:12.949Z,66.91
2023-02-08T04:20:40.887Z,66.98
2023-02-08T04:23:08.653Z,67.08
2023-02-08T04:25:36.420Z,67.20
2023-02-08T04:28:04.125Z,67.42
2023-02-08T04:30:31.851Z,67.04
2023-02-08T04:33:01.153Z,66.96
2023-02-08T04:35:28.907Z,66.79
2023-02-08T04:37:56.611Z,66.73
2023-02-08T04:40:24.325Z,66.79
2023-02-08T04:42:52.076Z,66.50
2023-02-08T04:45:19.774Z,66.32
2023-02-08T04:47:47.645Z,66.32
2023-02-08T04:50:16.023Z,66.45
2023-02-08T04:52:43.855Z,66.40
2023-02-08T04:55:11.697Z,66.26
2023-02-08T04:57:39.404Z,66.62
2023-02-08T05:00:07.568Z,66.35
2023-02-08T05:02:35.338Z,66.02
2023-02-08T05:05:03.100Z,66.21
2023-02-08T05:07:31.295Z,66.53
2023-02-08T05:09:58.919Z,65.84
2023-02-08T05:12:26.701Z,66.41
2023-02-08T05:14:54.484Z,65.80
2023-02-08T05:17:22.244Z,66.21
2023-02-08T05:19:50.353Z,66.29
2023-02-08T05:22:18.051Z,66.35
2023-02-08T05:24:45.783Z,66.41
2023-02-08T05:27:13.526Z,66.56
2023-02-08T05:29:41.318Z,66.11
2023-02-08T05:32:09.012Z,66.50
2023-02-08T05:34:38.505Z,66.64
2023-02-08T05:37:06.324Z,66.73
2023-02-08T05:39:34.111Z,66.32
2023-02-08T05:42:01.957Z,66.56
2023-02-08T05:44:29.764Z,66.43
2023-02-08T05:46:57.532Z,66.43
2023-02-08T05:49:25.465Z,66.59
2023-02-08T05:51:53.179Z,66.40
2023-02-08T05:54:20.927Z,66.28
2023-02-08T05:56:48.830Z,66.30
2023-02-08T05:59:16.774Z,66.24
2023-02-08T06:01:44.471Z,65.97
2023-02-08T06:04:12.261Z,66.40
2023-02-08T06:06:40.168Z,66.22
2023-02-08T06:09:08.091Z,65.85
2023-02-08T06:11:37.289Z,65.48
2023-02-08T06:14:05.050Z,65.61
2023-02-08T06:16:32.992Z,65.66
2023-02-08T06:19:00.694Z,65.53
2023-02-08T06:21:29.359Z,65.33
2023-02-08T06:23:57.040Z,65.62
2023-02-08T06:26:24.879Z,65.23
2023-02-08T06:28:52.525Z,65.42
2023-02-08T06:31:20.277Z,65.48
2023-02-08T06:33:48.041Z,65.75
2023-02-08T06:36:16.116Z,65.88
2023-02-08T06:38:44.315Z,65.98
2023-02-08T06:41:12.043Z,65.77
2023-02-08T06:43:40.177Z,65.81
2023-02-08T06:46:09.717Z,65.93
2023-02-08T06:48:37.809Z,65.59
2023-02-08T06:51:05.647Z,65.72
2023-02-08T06:53:33.524Z,65.57
2023-02-08T06:56:01.238Z,65.63
2023-02-08T06:58:28.886Z,65.95
2023-02-08T07:00:56.644Z,65.60
2023-02-08T07:03:24.314Z,66.93
2023-02-08T07:06:04.135Z,66.51
2023-02-08T07:08:34.527Z,66.08
2023-02-08T07:11:07.661Z,66.36
2023-02-08T07:13:35.437Z,65.90
2023-02-08T07:16:03.868Z,65.95
2023-02-08T07:18:31.721Z,66.00
2023-02-08T07:20:59.470Z,65.55
2023-02-08T07:23:27.192Z,65.26
2023-02-08T07:26:06.352Z,65.73
2023-02-08T07:28:34.284Z,65.46
2023-02-08T07:31:07.270Z,65.09
2023-02-08T07:33:35.243Z,65.37
2023-02-08T07:36:04.383Z,65.45
2023-02-08T07:38:34.780Z,65.35
2023-02-08T07:41:10.486Z,65.54
2023-02-08T07:43:39.406Z,65.55
2023-02-08T07:46:12.587Z,65.50
2023-02-08T07:48:40.647Z,65.44
2023-02-08T07:51:09.746Z,65.58
2023-02-08T07:53:37.990Z,65.52
2023-02-08T07:56:05.963Z,65.26
2023-02-08T07:58:33.622Z,65.32
2023-02-08T08:01:09.449Z,65.42
2023-02-08T08:03:43.715Z,64.62
2023-02-08T08:06:11.485Z,64.33
2023-02-08T08:08:39.142Z,64.76
2023-02-08T08:11:07.307Z,64.76
2023-02-08T08:13:35.019Z,64.73
2023-02-08T08:16:02.999Z,64.99
2023-02-08T08:18:30.983Z,64.38
2023-02-08T08:20:58.763Z,64.52
2023-02-08T08:23:26.532Z,64.04
2023-02-08T08:25:54.326Z,64.33
2023-02-08T08:28:22.119Z,64.64
2023-02-08T08:30:50.043Z,64.89
2023-02-08T08:33:17.831Z,64.66
2023-02-08T08:35:48.244Z,64.54
2023-02-08T08:38:16.058Z,64.64
2023-02-08T08:40:43.873Z,64.56
2023-02-08T08:43:11.672Z,63.98
2023-02-08T08:45:39.380Z,64.10
2023-02-08T08:48:07.440Z,64.41
2023-02-08T08:50:35.201Z,64.41
2023-02-08T08:53:02.874Z,64.63
2023-02-08T08:55:30.617Z,64.15
2023-02-08T08:57:58.435Z,64.45
2023-02-08T09:00:26.191Z,64.39
2023-02-08T09:02:54.307Z,64.21
2023-02-08T09:05:22.076Z,64.13
2023-02-08T09:07:49.846Z,64.00
2023-02-08T09:10:17.572Z,63.87
2023-02-08T09:12:45.355Z,63.90
2023-02-08T09:15:12.993Z,63.51
2023-02-08T09:17:40.708Z,63.44
2023-02-08T09:20:08.805Z,62.92
2023-02-08T09:22:36.499Z,63.14
2023-02-08T09:25:04.492Z,62.45
2023-02-08T09:27:32.239Z,63.02
2023-02-08T09:30:00.172Z,63.04
2023-02-08T09:32:27.922Z,63.06
2023-02-08T09:34:55.814Z,62.51
2023-02-08T09:37:23.682Z,62.82
2023-02-08T09:39:51.600Z,62.71
2023-02-08T09:43:18.110Z,62.46
2023-02-08T09:46:00.144Z,62.20
2023-02-08T09:48:40.058Z,62.31
2023-02-08T09:51:42.952Z,62.02
2023-02-08T09:54:22.124Z,61.92
2023-02-08T09:56:51.323Z,61.78
2023-02-08T09:59:30.117Z,61.64
2023-02-08T10:02:03.832Z,61.46
2023-02-08T10:04:38.807Z,60.49
2023-02-08T10:07:06.547Z,61.35
2023-02-08T10:09:34.821Z,61.52
2023-02-08T10:12:32.072Z,61.49
2023-02-08T10:15:24.235Z,61.30
2023-02-08T10:17:52.073Z,61.29
2023-02-08T10:20:29.667Z,61.33
2023-02-08T10:23:41.347Z,60.83
2023-02-08T10:26:15.063Z,60.67
2023-02-08T10:29:13.515Z,60.68
2023-02-08T10:32:05.905Z,60.46
2023-02-08T10:34:39.360Z,60.07
2023-02-08T10:37:36.041Z,60.42
2023-02-08T10:40:31.916Z,60.27
2023-02-08T10:43:04.736Z,60.16
2023-02-08T10:46:03.810Z,60.33
2023-02-08T10:49:12.444Z,60.09
2023-02-08T10:51:40.281Z,60.43
2023-02-08T10:54:11.825Z,60.64
2023-02-08T10:56:48.793Z,60.64
2023-02-08T10:59:24.452Z,60.49
2023-02-08T11:01:54.164Z,60.17
2023-02-08T11:04:21.964Z,60.28
2023-02-08T11:06:51.508Z,60.29
2023-02-08T11:09:22.110Z,60.12
2023-02-08T11:11:53.584Z,59.75
2023-02-08T11:14:35.105Z,59.69
2023-02-08T11:17:23.341Z,59.83
2023-02-08T11:19:52.167Z,59.80
2023-02-08T11:22:23.092Z,59.59
2023-02-08T11:25:03.467Z,59.78
2023-02-08T11:27:33.329Z,59.67
2023-02-08T11:30:19.529Z,59.74
2023-02-08T11:32:50.689Z,59.75
2023-02-08T11:35:25.578Z,59.92
2023-02-08T11:37:59.490Z,59.50
2023-02-08T11:40:35.508Z,59.38
2023-02-08T11:43:05.041Z,59.36
2023-02-08T11:45:36.859Z,59.45
2023-02-08T11:48:06.414Z,59.42
2023-02-08T11:50:37.954Z,59.52
2023-02-08T11:53:08.917Z,58.89
2023-02-08T11:55:37.194Z,59.07
2023-02-08T11:58:19.134Z,58.78
2023-02-08T12:01:07.202Z,59.14
2023-02-08T12:03:41.150Z,58.85
2023-02-08T12:06:17.765Z,58.89
2023-02-08T12:09:08.855Z,58.92
2023-02-08T12:11:43.978Z,58.59
2023-02-08T12:14:30.282Z,59.02
2023-02-08T12:17:17.260Z,58.76
2023-02-08T12:20:05.667Z,58.73
2023-02-08T12:22:33.943Z,58.67
2023-02-08T12:25:23.567Z,58.80
2023-02-08T12:28:06.806Z,58.46
2023-02-08T12:30:53.658Z,58.44
2023-02-08T12:33:46.583Z,58.35
2023-02-08T12:36:31.433Z,58.12
2023-02-08T12:39:33.681Z,57.63
2023-02-08T12:42:27.398Z,58.32
2023-02-08T12:45:17.490Z,57.87
2023-02-08T12:48:04.594Z,57.77
2023-02-08T12:50:45.997Z,58.23
2023-02-08T12:53:32.956Z,57.54
2023-02-08T12:56:12.752Z,57.21
2023-02-08T12:58:51.668Z,57.21
2023-02-08T13:01:38.296Z,56.17
2023-02-08T13:04:10.681Z,57.10
2023-02-08T13:06:50.991Z,56.60
2023-02-08T13:09:35.711Z,56.69
2023-02-08T13:12:15.294Z,56.01
2023-02-08T13:14:52.882Z,55.71
2023-02-08T13:17:25.742Z,56.20
2023-02-08T13:20:04.545Z,56.24
2023-02-08T13:22:38.367Z,56.07
2023-02-08T13:25:16.113Z,55.97
2023-02-08T13:27:43.986Z,56.21
2023-02-08T13:30:20.629Z,55.87
2023-02-08T13:32:51.829Z,55.33
2023-02-08T13:35:28.790Z,55.62
2023-02-08T13:38:34.271Z,55.31
2023-02-08T13:41:19.920Z,55.13
2023-02-08T13:44:24.703Z,54.84
2023-02-08T13:46:53.581Z,54.96
2023-02-08T13:50:10.932Z,54.93
2023-02-08T13:52:48.172Z,54.30
2023-02-08T13:55:34.599Z,54.96
2023-02-08T13:58:06.446Z,54.51
2023-02-08T14:00:38.076Z,54.99
2023-02-08T14:03:08.697Z,54.69
2023-02-08T14:05:45.685Z,54.86
2023-02-08T14:08:25.105Z,54.83
2023-02-08T14:11:15.671Z,54.71
2023-02-08T14:13:56.386Z,54.56
2023-02-08T14:16:32.110Z,54.86
2023-02-08T14:19:03.145Z,54.80
2023-02-08T14:21:44.501Z,54.54
2023-02-08T14:24:25.451Z,54.22
2023-02-08T14:27:09.458Z,54.14
2023-02-08T14:29:38.450Z,54.30
2023-02-08T14:32:06.353Z,54.64
2023-02-08T14:34:40.078Z,54.69
2023-02-08T14:37:07.909Z,54.38
2023-02-08T14:39:38.310Z,54.26
2023-02-08T14:42:09.800Z,54.12
2023-02-08T14:44:40.291Z,54.19
2023-02-08T14:47:26.086Z,53.67
2023-02-08T14:50:06.206Z,53.07
2023-02-08T14:52:35.690Z,53.27
2023-02-08T14:55:17.688Z,53.51
2023-02-08T14:57:45.865Z,53.23
2023-02-08T15:00:35.861Z,53.68
2023-02-08T15:03:06.513Z,53.05
2023-02-08T15:05:47.573Z,53.25
2023-02-08T15:08:22.237Z,52.99
2023-02-08T15:10:50.283Z,52.48
2023-02-08T15:13:25.973Z,53.01
2023-02-08T15:15:56.965Z,52.53
2023-02-08T15:18:29.047Z,52.95
2023-02-08T15:21:08.083Z,53.54
2023-02-08T15:23:35.801Z,54.00
2023-02-08T15:26:06.816Z,54.30
2023-02-08T15:28:37.802Z,54.46
2023-02-08T15:31:07.563Z,54.72
2023-02-08T15:33:35.903Z,54.96
2023-02-08T15:36:29.007Z,55.21
2023-02-08T15:39:00.231Z,55.40
2023-02-08T15:41:30.931Z,55.64
2023-02-08T15:44:08.205Z,55.89
2023-02-08T15:46:36.814Z,55.99
2023-02-08T15:49:04.869Z,56.15
2023-02-08T15:51:33.663Z,56.34
2023-02-08T15:54:01.503Z,56.44
2023-02-08T15:56:42.241Z,56.67
2023-02-08T15:59:22.351Z,56.78
2023-02-08T16:01:51.169Z,56.99
2023-02-08T16:04:19.522Z,57.04
2023-02-08T16:06:54.428Z,57.24
2023-02-08T16:09:26.543Z,57.36
2023-02-08T16:11:57.636Z,57.47
2023-02-08T16:14:29.311Z,57.56
2023-02-08T16:16:59.319Z,57.63
2023-02-08T16:19:32.916Z,57.81
2023-02-08T16:22:22.371Z,57.96
2023-02-08T16:24:51.959Z,58.18
2023-02-08T16:27:31.477Z,58.28
2023-02-08T16:30:00.356Z,58.45
2023-02-08T16:32:27.936Z,58.56
2023-02-08T16:34:55.700Z,58.53
2023-02-08T16:37:36.302Z,58.67
2023-02-08T16:40:06.165Z,59.14
2023-02-08T16:42:40.939Z,59.25
2023-02-08T16:45:13.734Z,59.40
2023-02-08T16:48:10.017Z,59.54
2023-02-08T16:50:45.598Z,59.60
2023-02-08T16:53:13.873Z,59.85
2023-02-08T16:55:41.596Z,59.84
2023-02-08T16:58:15.993Z,59.81
2023-02-08T17:00:44.048Z,59.79
2023-02-08T17:03:11.963Z,60.00
2023-02-08T17:05:41.087Z,59.98
2023-02-08T17:08:14.150Z,60.28
2023-02-08T17:10:42.265Z,60.16
2023-02-08T17:13:20.279Z,60.39
2023-02-08T17:15:51.577Z,60.48
2023-02-08T17:18:19.558Z,60.61
2023-02-08T17:20:47.815Z,60.76
2023-02-08T17:23:16.900Z,60.97
2023-02-08T17:25:45.538Z,61.00
2023-02-08T17:28:19.407Z,61.26
2023-02-08T17:30:49.034Z,61.26
2023-02-08T17:33:20.580Z,61.56
2023-02-08T17:35:50.928Z,61.65
2023-02-08T17:38:20.589Z,61.57
2023-02-08T17:40:48.681Z,62.15
2023-02-08T17:43:16.590Z,62.03
2023-02-08T17:45:45.385Z,62.21
2023-02-08T17:48:16.905Z,62.12
2023-02-08T17:50:48.962Z,62.21
2023-02-08T17:53:17.071Z,62.41
2023-02-08T17:55:46.516Z,62.51
2023-02-08T17:58:14.526Z,62.70
2023-02-08T18:00:42.504Z,62.78
2023-02-08T18:03:10.368Z,63.01
2023-02-08T18:05:38.616Z,63.06
2023-02-08T18:08:06.648Z,62.83
2023-02-08T18:10:34.376Z,63.02
2023-02-08T18:13:02.176Z,62.95
2023-02-08T18:15:30.081Z,63.04
2023-02-08T18:17:57.744Z,63.45
2023-02-08T18:20:25.504Z,63.34
2023-02-08T18:22:53.373Z,63.58
2023-02-08T18:25:21.729Z,63.85
2023-02-08T18:27:49.820Z,63.95
2023-02-08T18:30:17.614Z,63.73
2023-02-08T18:32:45.844Z,63.71
2023-02-08T18:35:13.606Z,64.11
2023-02-08T18:37:41.752Z,64.27
2023-02-08T18:40:10.577Z,64.65
2023-02-08T18:42:38.311Z,64.54
2023-02-08T18:45:07.482Z,64.67
2023-02-08T18:47:40.570Z,64.61
2023-02-08T18:50:10.231Z,64.78
2023-02-08T18:52:37.958Z,65.20
2023-02-08T18:55:05.998Z,65.30
2023-02-08T18:57:33.721Z,65.07
2023-02-08T19:00:01.520Z,64.85
2023-02-08T19:02:29.280Z,65.08
2023-02-08T19:04:57.244Z,64.70
2023-02-08T19:07:25.020Z,65.04
2023-02-08T19:09:52.905Z,64.97
2023-02-08T19:12:22.178Z,64.76
2023-02-08T19:14:51.895Z,64.80
2023-02-08T19:17:20.620Z,64.85
2023-02-08T19:19:48.512Z,64.96
2023-02-08T19:22:16.301Z,64.88
2023-02-08T19:24:44.176Z,64.94
2023-02-08T19:27:12.008Z,64.86
2023-02-08T19:29:39.862Z,64.75
2023-02-08T19:32:09.216Z,64.76
2023-02-08T19:34:36.960Z,64.86
2023-02-08T19:37:04.797Z,64.85
2023-02-08T19:39:32.799Z,65.29
2023-02-08T19:42:00.629Z,64.89
2023-02-08T19:44:30.606Z,64.92
2023-02-08T19:46:59.036Z,65.00
2023-02-08T19:49:28.532Z,64.97
2023-02-08T19:51:56.871Z,64.86
2023-02-08T19:54:24.958Z,65.50
2023-02-08T19:56:55.636Z,65.35
2023-02-08T19:59:29.586Z,65.18
2023-02-08T20:01:57.557Z,65.26
2023-02-08T20:04:26.091Z,65.55
2023-02-08T20:06:54.809Z,65.49
2023-02-08T20:09:23.080Z,65.44
2023-02-08T20:11:57.871Z,65.77
2023-02-08T20:14:27.278Z,65.57
2023-02-08T20:16:55.107Z,65.48
2023-02-08T20:19:22.936Z,65.52
2023-02-08T20:21:50.914Z,65.58
2023-02-08T20:24:20.821Z,65.27
2023-02-08T20:26:50.433Z,65.31
2023-02-08T20:29:18.994Z,65.41
2023-02-08T20:31:49.607Z,65.56
2023-02-08T20:34:19.789Z,65.84
2023-02-08T20:37:05.874Z,65.34
2023-02-08T20:39:35.603Z,65.65
2023-02-08T20:42:04.258Z,65.72
2023-02-08T20:44:32.859Z,65.74
2023-02-08T20:47:01.074Z,65.90
2023-02-08T20:49:29.100Z,65.38
2023-02-08T20:51:57.143Z,65.51
2023-02-08T20:54:25.609Z,65.37
2023-02-08T20:56:54.372Z,65.57
2023-02-08T20:59:22.497Z,65.95
2023-02-08T21:01:50.809Z,65.48
2023-02-08T21:04:20.914Z,66.10
2023-02-08T21:06:48.760Z,66.69
2023-02-08T21:09:19.038Z,66.44
2023-02-08T21:11:48.348Z,66.58
2023-02-08T21:14:19.948Z,66.75
2023-02-08T21:16:49.693Z,66.93
2023-02-08T21:19:18.361Z,66.83
2023-02-08T21:21:46.530Z,67.04
2023-02-08T21:24:14.264Z,66.73
2023-02-08T21:26:42.115Z,66.89
2023-02-08T21:29:09.952Z,67.12
2023-02-08T21:31:38.105Z,66.94
2023-02-08T21:34:07.306Z,66.95
2023-02-08T21:36:35.881Z,66.99
2023-02-08T21:39:04.510Z,67.29
2023-02-08T21:41:34.980Z,67.68
2023-02-08T21:44:05.116Z,67.83
2023-02-08T21:46:33.687Z,67.45
2023-02-08T21:49:20.582Z,67.82
2023-02-08T21:52:07.096Z,67.37
2023-02-08T21:54:42.697Z,68.00
2023-02-08T21:57:15.577Z,67.84
2023-02-08T21:59:44.347Z,67.69
2023-02-08T22:02:22.941Z,67.98
2023-02-08T22:04:50.858Z,67.87
2023-02-08T22:07:18.950Z,68.20
2023-02-08T22:09:46.680Z,68.01
2023-02-08T22:12:17.339Z,68.05
2023-02-08T22:14:45.279Z,68.25
2023-02-08T22:17:13.309Z,68.28
2023-02-08T22:19:42.478Z,69.21
2023-02-08T22:22:11.491Z,69.20
2023-02-08T22:24:39.578Z,69.02
2023-02-08T22:27:07.353Z,69.81
2023-02-08T22:29:35.153Z,69.85
2023-02-08T22:32:03.151Z,69.96
2023-02-08T22:34:30.942Z,69.99
2023-02-08T22:36:58.994Z,69.97
2023-02-08T22:39:26.954Z,69.80
2023-02-08T22:41:54.837Z,69.91
2023-02-08T22:44:22.558Z,70.12
2023-02-08T22:46:50.466Z,70.60
2023-02-08T22:49:18.120Z,70.83
2023-02-08T22:51:45.999Z,69.99
2023-02-08T22:54:13.753Z,70.10
2023-02-08T22:56:41.415Z,70.42
2023-02-08T22:59:09.236Z,70.38
2023-02-08T23:01:37.917Z,70.64
2023-02-08T23:04:06.162Z,70.50
2023-02-08T23:06:34.212Z,70.27
2023-02-08T23:09:02.322Z,70.38
2023-02-08T23:11:30.210Z,70.66
2023-02-08T23:13:58.072Z,70.92
2023-02-08T23:16:25.833Z,70.68
2023-02-08T23:18:53.658Z,70.62
2023-02-08T23:21:22.559Z,70.88
2023-02-08T23:23:50.641Z,71.28
2023-02-08T23:26:21.345Z,71.47
2023-02-08T23:28:51.930Z,71.40
2023-02-08T23:31:21.605Z,71.72
2023-02-08T23:33:49.884Z,71.30
2023-02-08T23:36:22.218Z,71.24
2023-02-08T23:38:51.452Z,71.42
2023-02-08T23:41:21.580Z,71.08
2023-02-08T23:43:51.737Z,71.23
2023-02-08T23:46:22.238Z,71.20
2023-02-08T23:48:50.765Z,71.22
2023-02-08T23:51:20.446Z,70.58
2023-02-08T23:53:49.179Z,70.83
2023-02-08T23:56:18.685Z,70.62
2023-02-08T23:58:48.654Z,70.27
